WetterOnline ( https://www.wetteronline.ch )

Wetter aktuell Ahaus

Aktuelles Wetter: Ahaus (46m)

6-stündlich | Neueste Meldungen
Ortszeit Temperatur Wetter
Mi, 11.12. 19:00 4.8° C bewölkt
Mi, 11.12. 13:00 5.5° C Sprühregen
Mi, 11.12. 7:00 4.8° C leichter Regen
Mi, 11.12. 1:00 6.0° C bedeckt
Di, 10.12. 19:00 5.0° C bedeckt
Di, 10.12. 13:00 4.8° C leicht bewölkt
Di, 10.12. 7:00 1.2° C leicht bewölkt
Di, 10.12. 1:00 3.8° C leicht bewölkt
Ortszeit Temperatur Wetter
Mi, 11.12. 22:30 4.6° C bedeckt
Mi, 11.12. 22:20 4.6° C bedeckt
Mi, 11.12. 22:10 4.7° C bewölkt
Mi, 11.12. 22:00 4.1° C bewölkt
Mi, 11.12. 21:50 4.1° C bewölkt
Mi, 11.12. 21:40 4.1° C wolkig
Mi, 11.12. 21:30 4.2° C wolkig
Mi, 11.12. 21:00 4.6° C bewölkt
Mi, 11.12. 20:30 4.6° C Dunst
Mi, 11.12. 20:00 4.8° C bewölkt
Mi, 11.12. 19:30 4.7° C bewölkt
Ortszeit Relative Feuchte Sichtweite
Mi, 11.12. 19:00 98% 4.6 km
Mi, 11.12. 13:00 98% 5.0 km
Mi, 11.12. 7:00 97% 5.0 km
Mi, 11.12. 1:00 64% 35 km
Di, 10.12. 19:00 73% 30 km
Di, 10.12. 13:00 85% 12 km
Di, 10.12. 7:00 90% 19 km
Di, 10.12. 1:00 78% 22 km
Ortszeit Relative Feuchte Sichtweite
Mi, 11.12. 22:30 97% 5.0 km
Mi, 11.12. 22:20 97% -
Mi, 11.12. 22:10 97% -
Mi, 11.12. 22:00 98% 4.8 km
Mi, 11.12. 21:50 98% -
Mi, 11.12. 21:40 98% -
Mi, 11.12. 21:30 98% 5.0 km
Mi, 11.12. 21:00 97% 5.0 km
Mi, 11.12. 20:30 97% -
Mi, 11.12. 20:00 97% 4.8 km
Mi, 11.12. 19:30 98% 4.7 km
Ortszeit Niederschlagsmenge Niederschlagsart
Mi, 11.12. 19:00 4 l/m2 in 12 Std. Regen
Mi, 11.12. 13:00 3 l/m2 in 6 Std. Regen
Mi, 11.12. 7:00 1 l/m2 in 12 Std. Regen
Mi, 11.12. 1:00 0.0 l/m2 in 6 Std. -
Di, 10.12. 19:00 0.0 l/m2 in 12 Std. -
Di, 10.12. 13:00 0.0 l/m2 in 6 Std. -
Di, 10.12. 7:00 0.0 l/m2 in 12 Std. -
Di, 10.12. 1:00 0.0 l/m2 in 6 Std. -
Ortszeit Niederschlagsmenge Niederschlagsart
Mi, 11.12. 22:30 0.0 l/m2 in 1 Std. -
Mi, 11.12. 22:20 keine Meldung -
Mi, 11.12. 22:10 keine Meldung -
Mi, 11.12. 22:00 0.0 l/m2 in 1 Std. -
Mi, 11.12. 21:50 keine Meldung -
Mi, 11.12. 21:40 keine Meldung -
Mi, 11.12. 21:30 0.0 l/m2 in 1 Std. -
Mi, 11.12. 21:00 0.0 l/m2 in 1 Std. -
Mi, 11.12. 20:30 0.0 l/m2 in 1 Std. -
Mi, 11.12. 20:00 0.0 l/m2 in 1 Std. -
Mi, 11.12. 19:30 0.0 l/m2 in 1 Std. -
Ortszeit Stärke Spitze Richtung
km/h Bft. km/h Grad Sektor
Mi, 11.12. 19:00 15 3 28 240° SW
Mi, 11.12. 13:00 19 3 37 220° SW
Mi, 11.12. 7:00 25 4 58 230° SW
Mi, 11.12. 1:00 31 5 63 200° S
Di, 10.12. 19:00 28 4 44 190° S
Di, 10.12. 13:00 24 4 35 190° S
Di, 10.12. 7:00 15 3 24 230° SW
Di, 10.12. 1:00 15 3 35 270° W
Ortszeit Stärke Spitze Richtung
km/h Bft. km/h Grad Sektor
Mi, 11.12. 22:30 17 3 26 - -
Mi, 11.12. 22:20 17 3 - - -
Mi, 11.12. 22:10 18 3 - - -
Mi, 11.12. 22:00 15 3 22 240° SW
Mi, 11.12. 21:50 15 3 - - -
Mi, 11.12. 21:40 15 3 - - -
Mi, 11.12. 21:30 14 3 22 - -
Mi, 11.12. 21:00 18 3 25 240° SW
Mi, 11.12. 20:30 18 3 25 - -
Mi, 11.12. 20:00 18 3 25 250° W
Mi, 11.12. 19:30 17 3 22 - -
Ortszeit Untergrenze Bedeckung Gattung
total tief tief mittel hoch
Mi, 11.12. 19:00 150 m 8/8 4/8 - - -
Mi, 11.12. 13:00 180 m 8/8 8/8 - - -
Mi, 11.12. 7:00 210 m 7/8 7/8 - - -
Mi, 11.12. 1:00 810 m 8/8 8/8 - - -
Di, 10.12. 19:00 2700 m 8/8 8/8 - - -
Di, 10.12. 13:00 6600 m 2/8 2/8 - - -
Di, 10.12. 7:00 1500 m 3/8 3/8 - - -
Di, 10.12. 1:00 1800 m 3/8 3/8 - - -
Ortszeit Bedeckungsgrad in Achtel und Wolkenuntergrenze
Mi, 11.12. 22:30 8(270m)
Mi, 11.12. 22:20 8(270m)
Mi, 11.12. 22:10 7(240m) 8(5100m) 8(6300m)
Mi, 11.12. 22:00 5(240m) 8(5100m) 8(6600m)
Mi, 11.12. 21:50 5(240m) 8(5100m) 8(6600m)
Mi, 11.12. 21:40 3(210m) 8(5100m) 8(6900m)
Mi, 11.12. 21:30 1(180m) 3(4200m) 8(5100m)
Mi, 11.12. 21:00 6(270m) 8(4200m)
Mi, 11.12. 20:30 3(210m) 7(360m) 8(4500m)
Mi, 11.12. 20:00 7(210m) 7(420m) 7(4800m)
Mi, 11.12. 19:30 5(210m) 8(4500m) 8(6000m)
Ortszeit Luftdruck NN (hPa) Tendenz (hPa in 3 Std.)
Mi, 11.12. 19:00 1005 - 0,3
Mi, 11.12. 13:00 1007 - 1,6
Mi, 11.12. 7:00 1009 - 0,7
Mi, 11.12. 1:00 1012 - 2,1
Di, 10.12. 19:00 1017 - 2,8
Di, 10.12. 13:00 1024 - 1,4
Di, 10.12. 7:00 1024 + 1,5
Di, 10.12. 1:00 1020 + 3,8
Ortszeit Luftdruck NN (hPa) Tendenz (hPa in 3 Std.)
Mi, 11.12. 22:30 1004 - 0,9
Mi, 11.12. 22:20 1004 keine Meldung
Mi, 11.12. 22:10 1004 keine Meldung
Mi, 11.12. 22:00 1004 - 0,7
Mi, 11.12. 21:50 1004 keine Meldung
Mi, 11.12. 21:40 1004 keine Meldung
Mi, 11.12. 21:30 1004 - 0,7
Mi, 11.12. 21:00 1004 - 0,6
Mi, 11.12. 20:30 1005 - 0,6
Mi, 11.12. 20:00 1005 - 0,3
Mi, 11.12. 19:30 1005 - 0,3
Ortszeit Schneehöhe (cm)
Mi, 11.12. 19:00 0
Mi, 11.12. 13:00 0
Mi, 11.12. 7:00 0
Mi, 11.12. 1:00 0
Di, 10.12. 19:00 0
Di, 10.12. 13:00 0
Di, 10.12. 7:00 0
Di, 10.12. 1:00 0
Ortszeit Schneehöhe (cm)
Mi, 11.12. 22:30 0
Mi, 11.12. 22:20 0
Mi, 11.12. 22:10 0
Mi, 11.12. 22:00 0
Mi, 11.12. 21:50 0
Mi, 11.12. 21:40 0
Mi, 11.12. 21:30 0
Mi, 11.12. 21:00 0
Mi, 11.12. 20:30 0
Mi, 11.12. 20:00 0
Mi, 11.12. 19:30 0
Link zu dieser Seite / Seite empfehlen

Das Wetter in ...